Time;durP1;ratioP1;P1;durP2;ratioP2;P2;SDS_P1;SDS_P2;PMS_P1;PMS_P2;Temp;Humidity;BMP_temperature;BMP_pressure;BME280_temperature;BME280_humidity;BME280_pressure;Samples;Min_cycle;Max_cycle;Signal;HPM_P1;HPM_P2
2022/10/30 00:01:57;;;;;;;7.22;4.32;;;12.50;99.90;;;;;;6078452;23;20435;-87
2022/10/30 00:04:26;;;;;;;7.57;3.08;;;12.70;99.90;;;;;;6042886;23;20339;-87
2022/10/30 00:06:53;;;;;;;15.63;3.83;;;12.70;99.90;;;;;;6073189;23;20470;-87
2022/10/30 00:10:25;;;;;;;11.65;3.03;;;12.70;99.90;;;;;;6067883;23;20019;-88
2022/10/30 00:12:53;;;;;;;12.57;3.15;;;12.60;99.90;;;;;;6028120;23;20036;-88
2022/10/30 00:15:21;;;;;;;6.88;3.45;;;12.60;99.90;;;;;;6071857;23;20042;-87
2022/10/30 00:17:48;;;;;;;16.20;6.97;;;12.50;99.90;;;;;;6078103;23;20022;-87
2022/10/30 00:20:16;;;;;;;22.15;8.57;;;12.60;99.90;;;;;;6069553;23;20026;-87
2022/10/30 00:22:43;;;;;;;5.68;3.35;;;12.50;99.90;;;;;;6042277;23;20058;-87
2022/10/30 00:25:11;;;;;;;8.77;3.50;;;12.50;99.90;;;;;;6076514;23;20014;-87
2022/10/30 00:27:38;;;;;;;8.05;3.28;;;12.50;99.90;;;;;;6045484;23;20041;-87
2022/10/30 00:30:06;;;;;;;10.57;4.43;;;12.70;99.90;;;;;;6091307;23;20019;-88
2022/10/30 00:32:37;;;;;;;8.93;2.90;;;12.70;99.90;;;;;;6042162;23;20034;-87
2022/10/30 00:35:05;;;;;;;15.18;3.10;;;12.70;99.90;;;;;;6066442;23;20023;-88
2022/10/30 00:37:33;;;;;;;6.90;3.05;;;12.70;99.90;;;;;;6076612;23;20027;-87
2022/10/30 00:40:38;;;;;;;6.38;2.35;;;12.70;99.90;;;;;;6042219;23;20026;-88
2022/10/30 00:43:33;;;;;;;6.40;3.30;;;12.80;99.90;;;;;;6043571;23;20018;-88
2022/10/30 00:46:28;;;;;;;9.23;5.20;;;12.80;99.90;;;;;;6077614;23;20022;-87
2022/10/30 00:49:13;;;;;;;12.82;4.43;;;12.70;99.90;;;;;;6075583;23;20023;-86
2022/10/30 00:51:45;;;;;;;10.27;3.13;;;12.80;99.90;;;;;;6070420;23;20026;-87
2022/10/30 00:54:17;;;;;;;19.38;5.88;;;12.90;99.90;;;;;;6065966;23;20030;-88
2022/10/30 00:56:47;;;;;;;9.35;3.30;;;12.80;99.90;;;;;;6043304;23;20019;-87
2022/10/30 00:59:21;;;;;;;5.90;2.30;;;12.90;99.90;;;;;;6072615;23;20465;-87
2022/10/30 01:01:49;;;;;;;10.20;4.05;;;12.70;99.90;;;;;;6077696;23;20019;-87
2022/10/30 01:04:18;;;;;;;7.90;2.70;;;12.50;99.90;;;;;;6019429;23;20761;-88
2022/10/30 01:06:50;;;;;;;9.35;5.53;;;12.60;99.90;;;;;;6019251;23;20026;-87
2022/10/30 01:09:57;;;;;;;7.65;3.63;;;12.50;99.90;;;;;;6067298;23;20038;-88
2022/10/30 01:12:25;;;;;;;5.85;4.85;;;12.50;99.90;;;;;;6067697;23;20027;-88
2022/10/30 01:14:57;;;;;;;6.25;2.95;;;12.50;99.90;;;;;;6043551;23;20023;-88
2022/10/30 01:17:43;;;;;;;9.38;4.68;;;12.40;99.90;;;;;;6021165;23;20455;-88
2022/10/30 01:20:35;;;;;;;11.45;5.68;;;12.40;99.90;;;;;;6045771;23;20018;-87
2022/10/30 01:23:19;;;;;;;12.20;3.70;;;12.40;99.90;;;;;;6071515;23;20413;-88
2022/10/30 01:25:54;;;;;;;8.88;3.72;;;12.40;99.90;;;;;;6043905;23;20398;-88
2022/10/30 01:29:06;;;;;;;14.93;4.55;;;12.40;99.90;;;;;;6019620;23;20042;-88
2022/10/30 01:31:50;;;;;;;5.70;3.10;;;12.40;99.90;;;;;;6043835;23;20023;-88
2022/10/30 01:34:37;;;;;;;6.47;3.08;;;12.50;99.90;;;;;;6043458;23;20018;-89
2022/10/30 01:37:58;;;;;;;4.97;3.00;;;12.40;99.90;;;;;;6077737;23;20026;-88
2022/10/30 01:40:26;;;;;;;6.88;3.58;;;12.60;99.90;;;;;;5896787;24;20473;-89
2022/10/30 01:42:57;;;;;;;8.90;5.38;;;12.60;99.90;;;;;;6037362;23;20458;-88
2022/10/30 01:45:44;;;;;;;3.72;3.20;;;12.60;99.90;;;;;;6044207;23;20470;-88
2022/10/30 01:48:58;;;;;;;17.98;3.22;;;12.70;99.90;;;;;;6045244;23;20380;-87
2022/10/30 01:52:00;;;;;;;12.80;4.13;;;12.70;99.90;;;;;;6072049;23;20023;-89
2022/10/30 01:54:44;;;;;;;9.75;3.92;;;12.60;99.90;;;;;;5991775;23;20019;-88
2022/10/30 01:57:22;;;;;;;4.72;2.42;;;12.50;99.90;;;;;;6020474;23;20112;-88
2022/10/30 02:00:01;;;;;;;17.75;4.95;;;12.30;99.90;;;;;;6019679;23;20343;-88
2022/10/30 02:02:40;;;;;;;23.92;4.97;;;12.00;99.90;;;;;;6045208;23;20377;-88
2022/10/30 02:05:18;;;;;;;6.53;2.60;;;11.60;99.90;;;;;;6044017;23;20023;-89
2022/10/30 02:07:47;;;;;;;6.28;2.50;;;11.40;99.90;;;;;;6042733;23;20023;-88
2022/10/30 02:14:26;;;;;;;6.93;2.78;;;11.50;99.90;;;;;;6076597;23;20033;-89
2022/10/30 02:16:56;;;;;;;13.50;3.50;;;11.70;99.90;;;;;;6043633;23;20026;-88
2022/10/30 02:19:24;;;;;;;5.65;2.45;;;11.90;99.90;;;;;;6071554;23;20050;-89
2022/10/30 02:21:53;;;;;;;6.63;3.03;;;12.00;99.90;;;;;;6045360;23;20026;-88
2022/10/30 02:24:21;;;;;;;4.32;3.97;;;12.00;99.90;;;;;;6024244;23;20037;-89
2022/10/30 02:26:52;;;;;;;9.63;3.67;;;12.00;99.90;;;;;;6046725;23;20018;-88
2022/10/30 02:29:20;;;;;;;8.75;4.22;;;12.00;99.90;;;;;;6048591;23;20022;-87
2022/10/30 02:31:48;;;;;;;7.75;2.95;;;12.10;99.90;;;;;;6046407;23;20023;-87
2022/10/30 02:34:16;;;;;;;14.63;5.50;;;12.10;99.90;;;;;;6046537;23;20021;-87
2022/10/30 02:36:43;;;;;;;7.55;3.42;;;12.20;99.90;;;;;;6071517;23;20067;-88
2022/10/30 02:39:11;;;;;;;7.03;3.67;;;12.10;99.90;;;;;;6047147;23;20018;-87
2022/10/30 06:35:56;;;;;;;9.27;5.15;;;9.90;99.90;;;;;;6074449;23;20030;31
2022/10/30 06:52:32;;;;;;;11.25;4.18;;;10.90;99.90;;;;;;6077294;23;20029;-90
2022/10/30 08:35:45;;;;;;;5.50;4.25;;;13.70;99.90;;;;;;6035323;23;20023;-87
2022/10/30 08:47:54;;;;;;;7.82;2.95;;;14.30;99.90;;;;;;5931243;23;20225;-88
2022/10/30 08:50:44;;;;;;;7.53;4.20;;;14.10;99.90;;;;;;5996326;23;20027;-82
2022/10/30 08:53:28;;;;;;;5.60;2.83;;;14.10;99.90;;;;;;6090986;23;20014;-88
2022/10/30 09:04:41;;;;;;;;;;;;;;;;;;;;;
2022/10/30 09:08:49;;;;;;;7.15;3.35;;;15.10;99.90;;;;;;6007950;23;20034;-89
2022/10/30 09:13:48;;;;;;;;;;;;;;;;;;;;;
2022/10/30 09:18:27;;;;;;;6.72;3.83;;;15.50;99.90;;;;;;6067318;23;20026;-90
2022/10/30 09:23:18;;;;;;;4.60;3.35;;;16.10;99.90;;;;;;5974756;23;20028;-89
2022/10/30 09:27:11;;;;;;;6.50;3.13;;;16.80;99.90;;;;;;6070611;23;20029;-89
2022/10/30 09:31:17;;;;;;;17.17;4.10;;;16.30;99.90;;;;;;6100030;23;20026;-89
2022/10/30 09:40:46;;;;;;;;;;;;;;;;;;;;;
2022/10/30 09:45:49;;;;;;;5.35;3.13;;;16.70;99.90;;;;;;5826907;24;20041;-89
2022/10/30 09:54:35;;;;;;;9.77;4.78;;;16.70;99.90;;;;;;5971293;23;20080;-89
2022/10/30 09:59:15;;;;;;;;;;;;;;;;;;;;;
2022/10/30 10:12:12;;;;;;;7.22;2.70;;;17.60;99.90;;;;;;5933130;23;20034;-89
2022/10/30 10:24:13;;;;;;;;;;;;;;;;;;;;;
2022/10/30 10:27:52;;;;;;;;;;;;;;;;;;;;;
2022/10/30 10:32:37;;;;;;;;;;;;;;;;;;;;;
2022/10/30 10:36:26;;;;;;;8.85;3.28;;;18.80;99.90;;;;;;5837128;24;20019;-91
2022/10/30 10:43:56;;;;;;;21.47;8.40;;;18.40;99.90;;;;;;6088069;23;20340;-89
2022/10/30 10:48:09;;;;;;;8.27;3.10;;;18.50;99.90;;;;;;5965108;24;20257;-89
2022/10/30 10:52:22;;;;;;;9.63;2.83;;;18.70;99.90;;;;;;5968175;23;20035;-90
2022/10/30 10:56:58;;;;;;;6.28;2.17;;;18.90;99.90;;;;;;5945235;23;20031;-90
2022/10/30 11:00:52;;;;;;;9.70;3.40;;;19.20;99.90;;;;;;5899059;24;20028;-89
2022/10/30 11:04:42;;;;;;;9.10;3.40;;;19.50;99.90;;;;;;5815537;24;20029;-89
2022/10/30 11:08:34;;;;;;;3.25;2.28;;;19.50;99.90;;;;;;5856008;24;20066;-90
2022/10/30 11:12:15;;;;;;;27.00;3.85;;;19.70;99.90;;;;;;5817684;24;20028;-89
2022/10/30 11:16:09;;;;;;;6.57;3.13;;;19.80;99.90;;;;;;5937004;23;20318;-90
2022/10/30 11:25:55;;;;;;;5.53;2.67;;;19.90;99.90;;;;;;5936211;24;20027;-90
2022/10/30 11:30:36;;;;;;;16.10;5.78;;;20.10;99.90;;;;;;6015069;23;20037;-90
2022/10/30 11:34:10;;;;;;;9.15;3.92;;;20.20;99.90;;;;;;5985473;24;20096;-90
2022/10/30 11:38:19;;;;;;;8.50;3.47;;;20.30;99.90;;;;;;5968268;23;20029;-89
2022/10/30 11:50:56;;;;;;;;;;;;;;;;;;;;;
2022/10/30 11:54:34;;;;;;;2.88;2.17;;;20.50;99.90;;;;;;5970086;23;20458;-90
2022/10/30 11:57:50;;;;;;;12.20;3.42;;;20.70;99.90;;;;;;6025932;23;20022;-90
2022/10/30 12:01:47;;;;;;;;;;;;;;;;;;;;;
2022/10/30 12:05:54;;;;;;;12.70;3.30;;;20.70;99.90;;;;;;5991325;23;20038;-90
2022/10/30 12:29:44;;;;;;;;;;;;;;;;;;;;;
2022/10/30 12:34:02;;;;;;;9.55;2.60;;;21.50;99.90;;;;;;5985286;23;20264;-92
2022/10/30 12:38:11;;;;;;;10.20;3.83;;;21.30;99.90;;;;;;6012182;23;20026;-92
2022/10/30 12:43:00;;;;;;;5.53;2.20;;;21.20;99.90;;;;;;6030008;23;20115;-90
2022/10/30 12:59:53;;;;;;;9.48;2.45;;;21.20;99.90;;;;;;5977626;23;20024;-91
2022/10/30 13:59:15;;;;;;;6.78;2.75;;;21.00;99.90;;;;;;6082188;23;20022;-91
2022/10/30 14:25:14;;;;;;;;;;;;;;;;;;;;;
2022/10/30 14:39:06;;;;;;;6.18;3.42;;;20.20;99.90;;;;;;5990638;23;20035;-91
2022/10/30 14:47:55;;;;;;;5.15;2.80;;;19.70;99.90;;;;;;5820327;24;20401;-91
2022/10/30 15:02:18;;;;;;;9.07;3.17;;;19.30;99.90;;;;;;5920734;24;20009;-91
2022/10/30 15:07:28;;;;;;;12.65;3.97;;;19.20;99.90;;;;;;5872433;24;20026;-91
2022/10/30 15:11:58;;;;;;;6.90;4.25;;;18.80;99.90;;;;;;5919468;24;20055;-91
2022/10/30 15:15:42;;;;;;;2.70;2.20;;;18.30;99.90;;;;;;5826773;24;20021;-91
2022/10/30 16:57:08;;;;;;;3.13;2.72;;;14.40;99.90;;;;;;6110869;23;20029;-86
2022/10/30 17:05:03;;;;;;;8.57;4.82;;;14.20;99.90;;;;;;5970028;23;20414;-90
2022/10/30 17:09:35;;;;;;;10.25;4.30;;;14.20;99.90;;;;;;6056310;23;20354;-89
2022/10/30 17:13:41;;;;;;;5.70;2.40;;;14.20;99.90;;;;;;6080576;23;20026;-89
2022/10/30 17:17:30;;;;;;;8.85;3.10;;;14.10;99.90;;;;;;6004410;23;20027;-89
2022/10/30 17:21:24;;;;;;;;;;;;;;;;;;;;;
2022/10/30 17:41:10;;;;;;;;;;;;;;;;;;;;;
2022/10/30 17:45:45;;;;;;;11.82;4.13;;;13.40;99.90;;;;;;5905785;24;20040;-90
2022/10/30 18:02:47;;;;;;;6.55;5.03;;;13.40;99.90;;;;;;6092719;23;20858;-91
2022/10/30 18:06:53;;;;;;;9.48;3.58;;;13.30;99.90;;;;;;5866937;24;20179;-89
2022/10/30 18:10:00;;;;;;;7.78;3.72;;;13.10;99.90;;;;;;6030959;23;20019;-89
2022/10/30 18:12:40;;;;;;;5.38;3.42;;;13.10;99.90;;;;;;6048586;23;20347;-89
2022/10/30 18:15:50;;;;;;;13.88;5.15;;;13.00;99.90;;;;;;6023351;23;20031;-86
2022/10/30 18:18:53;;;;;;;;;;;;;;;;;;;;;
2022/10/30 18:21:23;;;;;;;7.35;3.83;;;13.00;99.90;;;;;;6071741;23;20034;-88
2022/10/30 18:23:59;;;;;;;8.35;4.75;;;13.00;99.90;;;;;;6024170;23;20031;-89
2022/10/30 18:26:58;;;;;;;;;;;;;;;;;;;;;
2022/10/30 18:33:18;;;;;;;6.82;3.67;;;12.90;99.90;;;;;;6111260;23;20026;-89
2022/10/30 18:35:57;;;;;;;8.50;3.75;;;12.90;99.90;;;;;;6042613;23;20030;-88
2022/10/30 18:39:15;;;;;;;6.38;3.70;;;13.00;99.90;;;;;;6044240;23;20451;-89
2022/10/30 18:42:39;;;;;;;6.70;3.95;;;12.90;99.90;;;;;;6018122;23;20033;-89
2022/10/30 18:45:45;;;;;;;7.03;4.95;;;12.70;99.90;;;;;;5993784;23;20027;-89
2022/10/30 18:49:00;;;;;;;9.30;4.10;;;12.70;99.90;;;;;;5997703;23;20031;-88
2022/10/30 18:52:54;;;;;;;10.93;3.65;;;12.70;99.90;;;;;;5955163;23;20471;-90
2022/10/30 18:56:50;;;;;;;12.73;3.97;;;12.70;99.90;;;;;;5992035;23;20028;-89
2022/10/30 18:59:33;;;;;;;10.00;4.70;;;12.40;99.90;;;;;;5967393;23;20552;-89
2022/10/30 19:02:56;;;;;;;9.38;6.28;;;12.30;99.90;;;;;;5993814;23;20026;-89
2022/10/30 19:06:46;;;;;;;6.95;4.43;;;12.40;99.90;;;;;;6004620;23;20475;-91
2022/10/30 19:10:12;;;;;;;5.70;3.60;;;12.50;99.90;;;;;;6058208;23;20026;-89
2022/10/30 19:13:22;;;;;;;14.63;4.20;;;12.20;99.90;;;;;;6061211;23;20033;-88
2022/10/30 19:19:06;;;;;;;10.95;5.18;;;12.10;99.90;;;;;;6055282;23;20026;-90
2022/10/30 19:22:15;;;;;;;6.85;2.97;;;12.00;99.90;;;;;;6076749;23;20025;-87
2022/10/30 19:29:40;;;;;;;18.67;3.53;;;12.00;99.90;;;;;;6046856;23;20030;-90
2022/10/30 19:38:06;;;;;;;;;;;;;;;;;;;;;
2022/10/30 19:41:34;;;;;;;10.27;3.83;;;12.10;99.90;;;;;;5964912;24;20035;-90
2022/10/30 19:45:18;;;;;;;15.15;3.55;;;12.00;99.90;;;;;;5917200;24;20031;-90
2022/10/30 19:48:41;;;;;;;10.00;3.38;;;11.80;99.90;;;;;;5892974;23;20357;-91
2022/10/30 20:00:33;;;;;;;14.05;4.03;;;11.60;99.90;;;;;;6022334;23;20019;-90
2022/10/30 20:03:35;;;;;;;7.47;3.40;;;11.70;99.90;;;;;;6028017;23;20018;-91
2022/10/30 20:06:30;;;;;;;10.48;4.57;;;11.70;99.90;;;;;;6049968;23;20029;-90
2022/10/30 20:09:32;;;;;;;9.30;2.60;;;11.70;99.90;;;;;;6067882;23;20026;-90
2022/10/30 20:12:40;;;;;;;8.82;4.38;;;11.50;99.90;;;;;;6062043;23;20030;-90
2022/10/30 20:18:38;;;;;;;7.50;2.55;;;11.60;99.90;;;;;;5984962;23;20133;-90
2022/10/30 20:21:43;;;;;;;10.52;3.95;;;11.60;99.90;;;;;;6015299;23;20027;-90
2022/10/30 20:24:33;;;;;;;5.03;3.65;;;11.70;99.90;;;;;;5973230;23;20029;-90
2022/10/30 20:27:15;;;;;;;8.60;2.70;;;11.80;99.90;;;;;;5963181;23;20048;-90
2022/10/30 20:29:58;;;;;;;7.63;2.95;;;11.70;99.90;;;;;;5998327;23;20018;-89
2022/10/30 20:32:32;;;;;;;21.42;4.03;;;11.70;99.90;;;;;;6029018;23;20370;-90
2022/10/30 20:35:37;;;;;;;6.28;2.85;;;11.70;99.90;;;;;;6009460;23;20023;-90
2022/10/30 20:38:25;;;;;;;5.80;2.70;;;11.70;99.90;;;;;;6014650;23;20019;-90
2022/10/30 20:41:46;;;;;;;5.45;4.20;;;11.70;99.90;;;;;;5999866;23;20034;-89
2022/10/30 20:45:01;;;;;;;5.25;3.22;;;11.90;99.90;;;;;;5997055;23;20342;-89
2022/10/30 20:47:40;;;;;;;5.18;4.47;;;12.00;99.90;;;;;;5984081;23;20030;-89
2022/10/30 20:50:19;;;;;;;9.90;3.92;;;11.70;99.90;;;;;;6019457;23;20537;-89
2022/10/30 20:53:10;;;;;;;3.58;3.05;;;11.30;99.90;;;;;;6007038;23;20022;-89
2022/10/30 20:57:09;;;;;;;5.72;3.53;;;11.10;99.90;;;;;;5996901;23;20019;-88
2022/10/30 20:59:59;;;;;;;8.40;4.07;;;10.90;99.90;;;;;;5970040;23;20034;-89
2022/10/30 21:02:42;;;;;;;6.78;4.50;;;11.00;99.90;;;;;;5956137;23;20383;-89
2022/10/30 21:05:51;;;;;;;14.73;5.43;;;11.20;99.90;;;;;;6018949;23;20026;-89
2022/10/30 21:08:40;;;;;;;9.32;4.03;;;11.30;99.90;;;;;;6003002;23;20395;-89
2022/10/30 21:11:13;;;;;;;6.75;4.18;;;11.30;99.90;;;;;;5987256;23;20025;-89
2022/10/30 21:13:56;;;;;;;10.63;4.20;;;11.30;99.90;;;;;;6021293;23;20474;-89
2022/10/30 21:16:39;;;;;;;9.85;3.92;;;11.00;99.90;;;;;;6032112;23;20034;-90
2022/10/30 21:19:31;;;;;;;5.03;3.33;;;10.80;99.90;;;;;;6004242;23;20039;-90
2022/10/30 21:22:08;;;;;;;11.52;5.15;;;10.90;99.90;;;;;;6052544;23;20831;-90
2022/10/30 21:25:35;;;;;;;6.60;3.35;;;11.10;99.90;;;;;;6065469;23;20034;-89
2022/10/30 21:28:12;;;;;;;4.28;3.80;;;11.10;99.90;;;;;;6040544;23;20235;-89
2022/10/30 21:30:50;;;;;;;9.55;3.60;;;10.90;99.90;;;;;;6071268;23;20446;-89
2022/10/30 21:33:32;;;;;;;20.45;5.38;;;10.60;99.90;;;;;;6072064;23;20022;-89
2022/10/30 21:36:37;;;;;;;6.30;3.38;;;10.50;99.90;;;;;;6072183;23;20716;-89
2022/10/30 21:39:20;;;;;;;9.73;3.25;;;10.40;99.90;;;;;;6047558;23;20022;-89
2022/10/30 21:42:03;;;;;;;15.13;4.40;;;10.40;99.90;;;;;;6094655;23;20018;-89
2022/10/30 21:45:09;;;;;;;17.60;4.28;;;10.40;99.90;;;;;;6022159;23;20080;-89
2022/10/30 21:47:58;;;;;;;5.20;3.70;;;10.50;99.90;;;;;;6055990;23;20049;-89
2022/10/30 21:50:34;;;;;;;4.57;3.33;;;10.60;99.90;;;;;;6099718;23;20037;-88
2022/10/30 21:53:06;;;;;;;8.15;4.22;;;10.60;99.90;;;;;;6046933;23;20018;-89
2022/10/30 21:55:49;;;;;;;20.52;3.80;;;10.60;99.90;;;;;;6046795;23;20038;-88
2022/10/30 21:58:26;;;;;;;13.52;4.72;;;10.70;99.90;;;;;;6035487;23;20123;-89
2022/10/30 22:01:01;;;;;;;8.20;3.78;;;10.70;99.90;;;;;;6022337;23;20023;-90
2022/10/30 22:03:43;;;;;;;6.65;5.00;;;10.40;99.90;;;;;;6069653;23;20030;-89
2022/10/30 22:06:21;;;;;;;;;;;10.50;99.90;;;;;;6040459;23;20022;-90
2022/10/30 22:12:50;;;;;;;6.15;3.63;;;10.80;99.90;;;;;;6120012;23;20030;-87
2022/10/30 22:15:24;;;;;;;17.45;6.80;;;11.10;99.90;;;;;;6014089;23;20022;-89
2022/10/30 22:17:58;;;;;;;15.98;4.45;;;11.20;99.90;;;;;;6014850;23;20019;-89
2022/10/30 22:20:38;;;;;;;15.85;5.75;;;11.30;99.90;;;;;;5992396;23;20035;-89
2022/10/30 22:23:17;;;;;;;11.50;3.72;;;10.80;99.90;;;;;;5969994;23;20019;-89
2022/10/30 22:26:35;;;;;;;9.55;3.53;;;10.40;99.90;;;;;;5991602;23;20034;-88
2022/10/30 22:29:15;;;;;;;17.13;6.53;;;10.40;99.90;;;;;;5993661;23;20024;-89
2022/10/30 22:32:01;;;;;;;7.20;4.75;;;10.40;99.90;;;;;;6013057;23;20019;-89
2022/10/30 22:34:50;;;;;;;6.28;3.90;;;10.40;99.90;;;;;;6001748;23;20015;-89
2022/10/30 22:37:46;;;;;;;4.65;3.45;;;10.50;99.90;;;;;;6034201;23;20027;-89
2022/10/30 22:40:31;;;;;;;4.88;3.35;;;10.70;99.90;;;;;;6036593;23;20030;-89
2022/10/30 22:43:27;;;;;;;10.40;5.60;;;10.80;99.90;;;;;;6028208;23;20346;-88
2022/10/30 22:46:30;;;;;;;8.90;4.38;;;10.60;99.90;;;;;;6043838;23;20026;-89
2022/10/30 22:49:15;;;;;;;10.65;3.80;;;10.20;99.90;;;;;;5994458;23;20073;-89
2022/10/30 22:52:10;;;;;;;11.15;6.18;;;10.20;99.90;;;;;;6015151;23;20023;-89
2022/10/30 22:54:47;;;;;;;10.00;4.57;;;10.30;99.90;;;;;;6023212;23;20020;-89
2022/10/30 22:57:33;;;;;;;5.40;3.92;;;10.40;99.90;;;;;;6014607;23;20045;-89
2022/10/30 23:00:39;;;;;;;9.40;4.22;;;10.40;99.90;;;;;;6020260;23;20466;-89
2022/10/30 23:03:23;;;;;;;14.02;5.10;;;10.50;99.90;;;;;;6010905;23;20026;-89
2022/10/30 23:06:40;;;;;;;10.02;3.20;;;10.50;99.90;;;;;;6007407;23;20451;-89
2022/10/30 23:09:22;;;;;;;8.45;4.32;;;10.10;99.90;;;;;;6016195;23;20016;-90
2022/10/30 23:12:17;;;;;;;12.07;6.03;;;9.80;99.90;;;;;;5996321;23;20452;-90
2022/10/30 23:15:13;;;;;;;13.77;5.10;;;9.90;99.90;;;;;;5996601;23;20336;-90
2022/10/30 23:18:01;;;;;;;6.00;4.53;;;10.20;99.90;;;;;;5995611;23;20019;-89
2022/10/30 23:20:34;;;;;;;19.33;5.97;;;10.50;99.90;;;;;;6041646;23;20026;-88
2022/10/30 23:23:10;;;;;;;10.18;4.22;;;10.60;99.90;;;;;;6040931;23;20024;-89
2022/10/30 23:25:50;;;;;;;8.38;4.82;;;10.60;99.90;;;;;;5993566;23;20316;-89
2022/10/30 23:28:27;;;;;;;11.30;4.50;;;10.60;99.90;;;;;;5993171;23;20431;-89
2022/10/30 23:31:05;;;;;;;7.43;4.05;;;10.50;99.90;;;;;;6037265;23;20030;-90
2022/10/30 23:33:50;;;;;;;7.50;3.95;;;10.30;99.90;;;;;;5993288;23;20031;-89
2022/10/30 23:36:48;;;;;;;24.45;7.22;;;10.20;99.90;;;;;;6008584;23;20023;-89
2022/10/30 23:39:17;;;;;;;5.10;4.07;;;10.20;99.90;;;;;;6038396;23;20016;-88
2022/10/30 23:41:50;;;;;;;16.13;8.88;;;10.10;99.90;;;;;;6016034;23;20806;-88
2022/10/30 23:44:39;;;;;;;;;;;;;;;;;;;;;
2022/10/30 23:47:26;;;;;;;12.35;5.95;;;9.80;99.90;;;;;;6029003;23;20023;-89
2022/10/30 23:50:18;;;;;;;8.68;5.55;;;9.70;99.90;;;;;;6018310;23;20027;-89
2022/10/30 23:53:32;;;;;;;14.32;4.75;;;9.90;99.90;;;;;;6034146;23;20034;-85
2022/10/30 23:56:28;;;;;;;10.30;6.07;;;10.10;99.90;;;;;;5993703;23;20354;-90
2022/10/30 23:59:27;;;;;;;15.75;6.28;;;10.20;99.90;;;;;;5995184;23;20026;-88
